Terminal Aerodrome Forecast
Issued by NWS

Home | Current Version | Previous Version | Graphics & Text | Print | Product List | Glossary On
Versions: 1 2 3 4 5 6 7 8 9 10 11 12 13
893
FTUS43 KICT 162339
TAFRSL
TAF
KRSL 162339Z 1700/1724 33011KT P6SM OVC008
     FM170500 32010KT P6SM OVC010
     FM170800 32009KT P6SM OVC035
     FM171700 30007KT P6SM SCT150
     FM172300 24005KT P6SM SKC=

USA.gov is the U.S. government's official web portal to all federal, state and local government web resources and services.